Time;durP1;ratioP1;P1;durP2;ratioP2;P2;SDS_P1;SDS_P2;PMS_P1;PMS_P2;Temp;Humidity;BMP_temperature;BMP_pressure;BME280_temperature;BME280_humidity;BME280_pressure;Samples;Min_cycle;Max_cycle;Signal;HPM_P1;HPM_P2
2022/05/04 00:01:32;;;;;;;6.40;5.83;;;;;;;10.19;79.77;101211.34;5112612;28;20213;-69
2022/05/04 00:03:59;;;;;;;5.77;5.13;;;;;;;10.04;80.15;101211.81;5112873;28;20709;-69
2022/05/04 00:06:27;;;;;;;5.20;5.10;;;;;;;10.02;80.06;101218.88;5112381;28;20250;-69
2022/05/04 00:08:53;;;;;;;5.90;5.50;;;;;;;10.02;80.18;101212.78;5112483;28;20581;-70
2022/05/04 00:11:20;;;;;;;5.63;5.50;;;;;;;9.97;80.29;101202.44;5112611;28;20199;-69
2022/05/04 00:13:46;;;;;;;13.70;5.97;;;;;;;9.89;80.84;101201.84;5111997;28;20604;-68
2022/05/04 00:16:13;;;;;;;6.40;6.00;;;;;;;9.81;81.21;101199.47;5113562;28;20644;-69
2022/05/04 00:18:39;;;;;;;7.17;6.50;;;;;;;9.84;81.06;101201.97;5112902;28;20204;-68
2022/05/04 00:21:09;;;;;;;6.40;6.10;;;;;;;9.77;81.48;101203.06;5110262;28;20340;-69
2022/05/04 00:23:35;;;;;;;5.67;5.57;;;;;;;9.73;81.54;101200.59;5111084;28;20193;-69
2022/05/04 00:26:02;;;;;;;6.07;5.50;;;;;;;9.65;81.91;101196.44;5111454;28;20227;-69
2022/05/04 00:28:29;;;;;;;5.70;5.50;;;;;;;9.64;81.96;101199.09;5110643;28;20218;-69
2022/05/04 00:30:55;;;;;;;6.17;5.93;;;;;;;9.65;81.91;101196.44;5111237;28;20212;-69
2022/05/04 00:33:22;;;;;;;6.17;5.87;;;;;;;9.62;82.13;101199.16;5112205;28;20188;-69
2022/05/04 00:35:48;;;;;;;6.23;5.93;;;;;;;9.63;82.17;101200.84;5112193;28;20188;-69
2022/05/04 00:38:15;;;;;;;6.30;5.93;;;;;;;9.61;81.97;101197.44;5114563;28;20713;-69
2022/05/04 00:40:41;;;;;;;5.67;5.57;;;;;;;9.66;82.06;101192.06;5116054;28;20232;-69
2022/05/04 00:43:24;;;;;;;6.80;6.60;;;;;;;9.62;82.24;101204.38;5115309;28;20220;-69
2022/05/04 00:45:51;;;;;;;5.93;5.63;;;;;;;9.57;82.36;101190.59;5116656;28;20578;-69
2022/05/04 00:48:18;;;;;;;6.37;5.63;;;;;;;9.53;82.58;101199.41;5115799;28;20222;-69
2022/05/04 00:50:47;;;;;;;5.90;5.67;;;;;;;9.52;82.61;101202.94;5116710;28;20235;-69
2022/05/04 00:53:15;;;;;;;5.83;5.53;;;;;;;9.46;82.97;101200.50;5115813;28;20231;-68
2022/05/04 00:55:42;;;;;;;6.37;6.00;;;;;;;9.43;82.95;101203.22;5115578;28;20211;-68
2022/05/04 01:00:54;;;;;;;6.37;5.90;;;;;;;9.42;82.82;101203.22;5116960;28;20195;-69
2022/05/04 01:03:21;;;;;;;6.20;5.83;;;;;;;9.38;82.75;101199.88;5114794;28;20192;-68
2022/05/04 01:05:47;;;;;;;6.63;6.20;;;;;;;9.30;82.90;101200.09;5115328;28;20222;-68
2022/05/04 01:08:14;;;;;;;8.33;6.13;;;;;;;9.29;83.12;101195.78;5115284;28;20232;-69
2022/05/04 01:10:40;;;;;;;6.23;5.93;;;;;;;9.31;83.04;101198.31;5116053;28;20216;-69
2022/05/04 01:13:06;;;;;;;6.20;5.97;;;;;;;9.27;82.91;101199.31;5115180;28;20231;-70
2022/05/04 01:15:33;;;;;;;5.70;5.40;;;;;;;9.23;82.95;101202.91;5116496;28;20218;-70
2022/05/04 01:18:00;;;;;;;6.87;5.83;;;;;;;9.20;83.35;101200.38;5115006;28;20253;-70
2022/05/04 01:20:26;;;;;;;9.80;5.67;;;;;;;9.14;83.36;101196.16;5114356;28;20186;-69
2022/05/04 01:22:54;;;;;;;5.73;5.63;;;;;;;9.15;83.30;101202.28;5114878;28;20589;-69
2022/05/04 01:25:20;;;;;;;14.83;6.43;;;;;;;9.09;83.52;101209.38;5115836;28;20210;-69
2022/05/04 01:27:46;;;;;;;6.30;5.87;;;;;;;9.05;83.84;101202.50;5115743;28;20704;-71
2022/05/04 01:30:13;;;;;;;5.83;5.63;;;;;;;9.05;83.65;101199.91;5116293;28;20205;-71
2022/05/04 01:32:40;;;;;;;6.30;5.87;;;;;;;9.04;83.89;101199.94;5113870;28;20235;-71
2022/05/04 01:35:06;;;;;;;5.80;5.60;;;;;;;9.03;83.96;101195.63;5114881;28;20232;-71
2022/05/04 01:37:33;;;;;;;5.70;5.50;;;;;;;8.99;84.20;101197.44;5115614;28;20604;-71
2022/05/04 01:39:59;;;;;;;5.97;5.43;;;;;;;8.99;84.22;101199.19;5114804;28;20231;-71
2022/05/04 01:42:25;;;;;;;5.27;5.07;;;;;;;8.93;84.43;101200.25;5115058;28;20565;-71
2022/05/04 01:44:52;;;;;;;5.97;5.77;;;;;;;8.93;84.69;101196.75;5115457;28;20226;-71
2022/05/04 01:47:18;;;;;;;5.27;5.17;;;;;;;8.89;84.62;101208.19;5114478;28;20244;-71
2022/05/04 01:49:45;;;;;;;6.40;6.10;;;;;;;8.90;84.60;101209.91;5114658;28;20220;-71
2022/05/04 01:52:11;;;;;;;6.30;5.70;;;;;;;8.77;84.93;101205.00;5114255;28;20244;-71
2022/05/04 01:54:37;;;;;;;5.27;4.97;;;;;;;8.73;85.09;101210.34;5115527;28;20217;-72
2022/05/04 01:57:04;;;;;;;5.80;5.37;;;;;;;8.72;85.26;101208.66;5114107;28;20211;-71
2022/05/04 01:59:31;;;;;;;6.27;5.97;;;;;;;8.72;85.18;101212.09;5096946;28;20246;-71
2022/05/04 02:01:59;;;;;;;6.50;6.10;;;;;;;8.65;85.39;101212.31;5113530;28;20178;-70
2022/05/04 02:04:25;;;;;;;7.13;6.43;;;;;;;8.57;85.38;101209.84;5097163;28;20207;-70
2022/05/04 02:06:52;;;;;;;6.40;5.97;;;;;;;8.51;85.41;101208.28;5115507;28;20223;-70
2022/05/04 02:09:19;;;;;;;6.87;6.47;;;;;;;8.36;85.88;101206.06;5113946;28;20662;-71
2022/05/04 02:11:45;;;;;;;6.20;5.53;;;;;;;8.24;86.16;101209.78;5114875;28;20237;-71
2022/05/04 02:14:12;;;;;;;5.77;5.47;;;;;;;8.17;86.64;101212.56;5113981;28;20188;-71
2022/05/04 02:16:38;;;;;;;6.97;6.63;;;;;;;8.14;87.15;101216.06;5113892;28;20188;-71
2022/05/04 02:19:05;;;;;;;5.80;5.70;;;;;;;8.17;87.47;101208.19;5113685;28;20202;-71
2022/05/04 02:21:31;;;;;;;6.00;5.77;;;;;;;8.19;87.74;101203.81;5112792;28;20654;-71
2022/05/04 02:23:58;;;;;;;6.17;5.90;;;;;;;8.24;88.12;101208.91;5113806;28;20193;-71
2022/05/04 02:26:24;;;;;;;9.73;5.60;;;;;;;8.26;87.95;101199.28;5113809;28;20197;-70
2022/05/04 02:28:51;;;;;;;6.47;6.23;;;;;;;8.24;88.10;101201.94;5113599;28;20247;-71
2022/05/04 02:31:17;;;;;;;6.93;6.43;;;;;;;8.31;87.96;101209.63;5113833;28;20250;-70
2022/05/04 02:33:44;;;;;;;6.83;6.50;;;;;;;8.26;88.26;101205.38;5113812;28;20676;-71
2022/05/04 02:38:55;;;;;;;6.97;6.67;;;;;;;8.22;87.72;101202.88;5113630;28;20248;-71
2022/05/04 02:41:22;;;;;;;6.30;6.03;;;;;;;8.17;88.17;101202.97;5114368;28;20213;-71
2022/05/04 02:43:48;;;;;;;6.50;6.30;;;;;;;8.18;88.11;101198.63;5113489;28;20218;-71
2022/05/04 02:46:20;;;;;;;6.90;6.47;;;;;;;8.17;88.33;101200.38;5113519;28;20220;-71
2022/05/04 02:48:47;;;;;;;6.10;5.80;;;;;;;8.15;88.33;101202.19;5113505;28;20240;-71
2022/05/04 02:51:14;;;;;;;6.77;6.40;;;;;;;8.10;88.31;101197.94;5114166;28;20246;-71
2022/05/04 02:53:41;;;;;;;5.97;5.77;;;;;;;8.02;88.45;101202.50;5114177;28;20627;-71
2022/05/04 02:56:08;;;;;;;6.80;6.47;;;;;;;7.98;88.82;101189.50;5112624;28;20594;-71
2022/05/04 02:58:35;;;;;;;6.10;5.67;;;;;;;7.97;88.94;101198.22;5112354;28;20250;-71
2022/05/04 03:03:59;;;;;;;5.90;5.80;;;;;;;7.95;89.37;101189.59;5114289;28;20261;-71
2022/05/04 03:06:26;;;;;;;7.17;6.67;;;;;;;7.95;89.31;101184.38;5113577;28;20231;-71
2022/05/04 03:08:52;;;;;;;7.57;7.17;;;;;;;7.96;89.08;101190.44;5113157;28;20244;-71
2022/05/04 03:14:07;;;;;;;6.53;6.30;;;;;;;7.88;89.65;101189.75;5114192;28;20647;-71
2022/05/04 03:16:34;;;;;;;7.07;5.90;;;;;;;7.84;89.85;101185.50;5112985;28;20610;-70
2022/05/04 03:19:03;;;;;;;10.57;6.47;;;;;;;7.90;89.72;101196.66;5113748;28;20200;-71
2022/05/04 03:21:29;;;;;;;10.23;6.53;;;;;;;7.90;89.98;101187.97;5111759;28;20224;-70
2022/05/04 03:23:55;;;;;;;7.53;6.70;;;;;;;7.87;90.20;101190.66;5113991;28;20205;-71
2022/05/04 03:26:24;;;;;;;6.67;6.20;;;;;;;7.81;90.26;101190.78;5112878;28;20225;-70
2022/05/04 03:28:51;;;;;;;6.70;6.20;;;;;;;7.80;90.26;101189.09;5113595;28;20258;-70
2022/05/04 03:31:18;;;;;;;6.70;6.40;;;;;;;7.83;89.79;101195.06;5112204;28;20209;-70
2022/05/04 03:33:44;;;;;;;7.77;6.60;;;;;;;7.77;90.21;101194.34;5112277;28;20655;-70
2022/05/04 03:36:11;;;;;;;6.93;6.47;;;;;;;7.69;90.44;101191.91;5110546;28;20655;-70
2022/05/04 03:38:38;;;;;;;7.03;6.23;;;;;;;7.67;90.70;101194.56;5113406;28;20220;-70
2022/05/04 03:41:04;;;;;;;6.87;6.60;;;;;;;7.67;90.79;101194.56;5112379;28;20189;-70
2022/05/04 03:43:31;;;;;;;6.30;6.00;;;;;;;7.67;90.58;101189.34;5113588;28;20599;-70
2022/05/04 03:46:16;;;;;;;7.00;6.50;;;;;;;7.65;90.73;101196.34;5112048;28;20224;-70
2022/05/04 03:48:44;;;;;;;6.73;6.43;;;;;;;7.63;90.79;101197.25;5113541;28;20211;-70
2022/05/04 03:51:10;;;;;;;7.57;6.37;;;;;;;7.60;90.72;101197.31;5112387;28;20228;-70
2022/05/04 03:53:37;;;;;;;14.93;7.27;;;;;;;7.64;90.57;101188.53;5113483;28;20212;-70
2022/05/04 03:56:04;;;;;;;6.83;6.47;;;;;;;7.56;90.65;101196.53;5111768;28;20717;-70
2022/05/04 03:58:30;;;;;;;7.57;7.00;;;;;;;7.57;90.54;101184.34;5112655;28;20249;-71
2022/05/04 04:00:57;;;;;;;7.27;6.87;;;;;;;7.50;90.72;101191.47;5112404;28;20231;-71
2022/05/04 04:03:24;;;;;;;7.23;6.50;;;;;;;7.53;91.08;101193.13;5113410;28;20202;-71
2022/05/04 04:05:50;;;;;;;7.33;6.83;;;;;;;7.50;91.06;101191.47;5110600;28;20198;-70
2022/05/04 04:08:17;;;;;;;7.60;7.20;;;;;;;7.51;91.42;101194.94;5111703;28;20615;-70
2022/05/04 04:10:43;;;;;;;7.93;7.17;;;;;;;7.50;91.37;101185.38;5112667;28;20213;-70
2022/05/04 04:13:09;;;;;;;9.60;6.57;;;;;;;7.49;91.32;101189.72;5116038;28;20612;-70
2022/05/04 04:15:36;;;;;;;7.33;7.00;;;;;;;7.45;91.50;101188.94;5115284;28;20663;-70
2022/05/04 04:18:02;;;;;;;7.20;6.90;;;;;;;7.45;91.59;101188.94;5117691;28;20683;-70
2022/05/04 04:23:14;;;;;;;7.77;7.17;;;;;;;7.47;91.42;101201.94;5100274;28;20184;-70
2022/05/04 04:25:41;;;;;;;7.27;6.87;;;;;;;7.47;91.53;101195.88;5115297;28;20236;-71
2022/05/04 04:28:07;;;;;;;6.67;6.27;;;;;;;7.48;91.47;101187.16;5116278;28;20254;-70
2022/05/04 04:30:34;;;;;;;14.70;6.50;;;;;;;7.49;91.49;101188.88;5116912;28;20216;-70
2022/05/04 04:33:00;;;;;;;7.77;7.03;;;;;;;7.48;91.47;101187.16;5116787;28;20228;-70
2022/05/04 04:35:27;;;;;;;8.20;7.70;;;;;;;7.49;91.58;101189.72;5114880;28;20214;-70
2022/05/04 04:37:53;;;;;;;7.90;7.50;;;;;;;7.55;91.42;101193.94;5115939;28;20736;-70
2022/05/04 04:40:19;;;;;;;8.33;7.67;;;;;;;7.54;91.30;101200.06;5116010;28;20207;-70
2022/05/04 04:42:46;;;;;;;12.93;7.33;;;;;;;7.52;91.69;101210.53;5117207;28;20212;-70
2022/05/04 04:45:12;;;;;;;7.00;6.80;;;;;;;7.55;91.70;101210.44;5115908;28;20219;-70
2022/05/04 04:47:39;;;;;;;7.43;6.80;;;;;;;7.57;91.86;101205.19;5115387;28;20209;-70
2022/05/04 04:50:06;;;;;;;8.33;7.83;;;;;;;7.57;91.58;101215.63;5115877;28;20185;-70
2022/05/04 04:52:32;;;;;;;6.67;6.30;;;;;;;7.55;91.70;101210.44;5115616;28;20347;-70
2022/05/04 04:54:59;;;;;;;9.20;7.43;;;;;;;7.57;91.73;101215.63;5115287;28;20217;-69
2022/05/04 04:57:25;;;;;;;7.80;7.03;;;;;;;7.61;91.73;101214.69;5115189;28;20620;-70
2022/05/04 04:59:51;;;;;;;7.43;7.03;;;;;;;7.63;91.41;101211.13;5116605;28;20220;-70
2022/05/04 05:02:18;;;;;;;8.27;7.43;;;;;;;7.66;91.09;101218.91;5113811;28;20647;-70
2022/05/04 05:04:45;;;;;;;7.03;6.60;;;;;;;7.65;91.22;101211.97;5116249;28;20238;-70
2022/05/04 05:07:11;;;;;;;9.17;7.13;;;;;;;7.72;90.91;101217.94;5116457;28;20194;-70
2022/05/04 05:09:38;;;;;;;7.03;6.47;;;;;;;7.74;90.70;101218.75;5116201;28;20231;-70
2022/05/04 05:12:04;;;;;;;9.53;7.33;;;;;;;7.71;90.61;101222.28;5114514;28;20240;-70
2022/05/04 05:17:15;;;;;;;7.13;6.73;;;;;;;7.82;90.27;101219.44;5114978;28;20213;-70
2022/05/04 05:19:42;;;;;;;8.60;8.07;;;;;;;7.83;90.21;101212.47;5116192;28;20196;-71
2022/05/04 05:22:08;;;;;;;8.10;7.57;;;;;;;7.85;90.29;101208.91;5114961;28;20655;-70
2022/05/04 05:24:35;;;;;;;11.13;8.37;;;;;;;7.85;90.01;101211.53;5115790;28;20246;-70
2022/05/04 05:27:01;;;;;;;7.87;7.17;;;;;;;7.86;90.08;101202.84;5115891;28;20193;-71
2022/05/04 05:29:28;;;;;;;8.33;7.80;;;;;;;7.92;90.13;101205.28;5113178;28;20694;-70
2022/05/04 05:31:54;;;;;;;7.90;7.20;;;;;;;7.98;90.55;101207.75;5113990;28;20198;-71
2022/05/04 05:34:20;;;;;;;8.17;7.60;;;;;;;8.02;89.82;101205.09;5114232;28;20216;-71
2022/05/04 05:36:47;;;;;;;7.80;7.10;;;;;;;8.06;89.90;101207.59;5113010;28;20193;-70
2022/05/04 05:39:13;;;;;;;14.90;7.07;;;;;;;8.06;89.65;101201.50;5113052;28;20635;-71
2022/05/04 05:41:40;;;;;;;7.37;7.07;;;;;;;8.07;89.30;101208.44;5113882;28;20217;-70
2022/05/04 05:44:12;;;;;;;18.40;7.67;;;;;;;8.09;89.26;101211.88;5116003;28;20650;-72
2022/05/04 05:46:38;;;;;;;13.23;8.00;;;;;;;8.15;88.96;101209.16;5114533;28;20621;-72
2022/05/04 05:49:05;;;;;;;7.60;7.27;;;;;;;8.20;89.33;101220.31;5115306;28;20683;-71
2022/05/04 05:51:31;;;;;;;9.30;7.97;;;;;;;8.26;88.89;101220.16;5112021;28;20279;-71
2022/05/04 05:53:58;;;;;;;12.00;7.23;;;;;;;8.30;88.47;101216.59;5113591;28;20243;-71
2022/05/04 05:56:24;;;;;;;7.23;6.77;;;;;;;8.18;87.89;101222.09;5115511;28;20223;-71
2022/05/04 05:58:50;;;;;;;7.83;7.07;;;;;;;8.25;88.20;101221.06;5115371;28;20209;-71
2022/05/04 06:01:17;;;;;;;8.33;7.53;;;;;;;8.31;88.80;101213.09;5113239;28;20618;-71
2022/05/04 06:03:43;;;;;;;11.53;8.73;;;;;;;8.49;87.88;101217.88;5114168;28;20200;-72
2022/05/04 06:06:10;;;;;;;8.07;7.40;;;;;;;8.56;86.79;101218.59;5114241;28;20196;-72
2022/05/04 06:08:36;;;;;;;7.90;7.40;;;;;;;8.57;87.83;101224.66;5114947;28;20241;-72
2022/05/04 06:11:04;;;;;;;8.80;7.97;;;;;;;8.62;87.85;101218.44;5113969;28;20306;-71
2022/05/04 06:13:30;;;;;;;15.23;7.40;;;;;;;8.76;87.97;101207.66;5114928;28;20209;-71
2022/05/04 06:15:56;;;;;;;8.33;7.93;;;;;;;8.79;87.42;101213.66;5111839;28;20225;-71
2022/05/04 06:18:23;;;;;;;10.47;8.20;;;;;;;8.90;86.71;101215.13;5113656;28;20284;-71
2022/05/04 06:20:49;;;;;;;17.40;8.53;;;;;;;8.95;86.72;101214.13;5114732;28;20204;-72
2022/05/04 06:23:16;;;;;;;9.97;8.57;;;;;;;9.00;86.46;101209.63;5114948;28;20196;-72
2022/05/04 06:25:45;;;;;;;9.03;8.40;;;;;;;8.97;86.77;101206.22;5111446;28;20547;-71
2022/05/04 06:28:12;;;;;;;8.60;7.77;;;;;;;9.08;87.19;101212.03;5112458;28;20244;-71
2022/05/04 06:36:09;;;;;;;9.23;8.33;;;;;;;9.53;85.34;101214.25;5113029;28;20667;-72
2022/05/04 06:38:35;;;;;;;8.80;8.00;;;;;;;9.52;85.07;101213.41;5111129;28;20260;-71
2022/05/04 06:41:03;;;;;;;9.33;8.03;;;;;;;9.57;84.64;101216.75;5114141;28;20627;-71
2022/05/04 06:43:29;;;;;;;8.43;7.97;;;;;;;9.68;84.08;101219.03;5114345;28;20319;-71
2022/05/04 06:45:56;;;;;;;8.13;7.50;;;;;;;9.70;84.06;101218.97;5114774;28;20195;-72
2022/05/04 06:48:22;;;;;;;7.40;6.93;;;;;;;9.81;83.98;101225.59;5113374;28;20209;-70
2022/05/04 06:50:49;;;;;;;9.47;8.70;;;;;;;9.84;83.51;101227.25;5113839;28;20585;-70
2022/05/04 06:53:15;;;;;;;10.43;7.43;;;;;;;9.90;83.51;101224.47;5114330;28;20227;-70
2022/05/04 06:55:42;;;;;;;7.83;7.17;;;;;;;10.03;84.01;101217.13;5114372;28;20218;-71
2022/05/04 06:58:08;;;;;;;8.17;7.77;;;;;;;10.11;83.85;101220.34;5114038;28;20242;-71
2022/05/04 07:00:35;;;;;;;9.40;8.57;;;;;;;10.27;83.40;101225.97;5114423;28;20610;-72
2022/05/04 07:03:01;;;;;;;12.83;8.67;;;;;;;10.35;82.67;101229.19;5114002;28;20197;-72
2022/05/04 07:05:28;;;;;;;9.07;8.37;;;;;;;10.47;82.85;101226.19;5095608;28;20188;-72
2022/05/04 07:07:54;;;;;;;10.23;7.80;;;;;;;10.62;81.26;101225.69;5113912;28;20252;-72
2022/05/04 07:10:21;;;;;;;9.57;8.40;;;;;;;10.65;81.58;101232.59;5113871;28;20669;-72
2022/05/04 07:12:48;;;;;;;12.97;8.80;;;;;;;10.67;81.10;101229.00;5113772;28;20702;-72
2022/05/04 07:15:15;;;;;;;9.53;8.70;;;;;;;10.68;81.09;101225.47;5113864;28;20241;-72
2022/05/04 07:17:42;;;;;;;8.80;7.83;;;;;;;10.77;81.28;101219.06;5114005;28;20667;-72
2022/05/04 07:20:09;;;;;;;10.20;8.93;;;;;;;10.83;81.05;101220.63;5114318;28;20188;-72
2022/05/04 07:22:36;;;;;;;8.87;8.37;;;;;;;10.92;80.56;101218.53;5114061;28;20173;-72
2022/05/04 07:25:05;;;;;;;10.40;9.17;;;;;;;10.97;80.07;101213.16;5114001;28;20211;-71
2022/05/04 07:27:31;;;;;;;8.97;8.33;;;;;;;10.94;79.77;101215.91;5113878;28;20212;-69
2022/05/04 07:29:58;;;;;;;9.10;8.57;;;;;;;11.02;80.20;101224.34;5113971;28;20230;-69
2022/05/04 07:32:24;;;;;;;9.23;8.67;;;;;;;11.08;79.83;101223.28;5113503;28;20188;-69
2022/05/04 07:34:51;;;;;;;12.40;8.53;;;;;;;11.16;79.23;101227.31;5114376;28;20503;-69
2022/05/04 07:37:17;;;;;;;10.30;9.20;;;;;;;11.17;79.00;101226.41;5113461;28;20262;-69
2022/05/04 07:42:29;;;;;;;9.13;8.37;;;;;;;11.30;78.53;101227.69;5113848;28;20543;-69
2022/05/04 07:45:07;;;;;;;10.00;7.37;;;;;;;11.33;78.55;101236.34;5113439;28;20213;-69
2022/05/04 07:47:35;;;;;;;9.30;8.50;;;;;;;11.32;78.41;101237.25;5115348;28;20228;-69
2022/05/04 07:50:03;;;;;;;9.37;8.43;;;;;;;11.32;78.59;101232.03;5117991;28;20196;-69
2022/05/04 07:52:30;;;;;;;10.07;9.13;;;;;;;11.28;78.59;101242.59;5117556;28;20621;-69
2022/05/04 07:54:56;;;;;;;10.03;9.23;;;;;;;11.23;78.52;101241.06;5099534;28;20246;-69
2022/05/04 07:57:23;;;;;;;10.47;9.13;;;;;;;11.30;78.32;101248.66;5117420;28;20221;-70
2022/05/04 08:05:24;;;;;;;12.57;9.77;;;;;;;11.38;81.56;101252.78;5117905;28;20222;-69
2022/05/04 08:07:51;;;;;;;9.60;9.07;;;;;;;11.55;80.79;101246.00;5099147;28;20210;-71
2022/05/04 08:10:18;;;;;;;11.47;10.30;;;;;;;11.75;79.88;101236.53;5117305;28;20222;-70
2022/05/04 08:12:44;;;;;;;11.23;10.27;;;;;;;11.88;77.73;101236.97;5117379;28;20257;-69
2022/05/04 08:15:11;;;;;;;13.03;10.70;;;;;;;11.96;79.13;101242.75;5117498;28;20222;-71
2022/05/04 08:17:37;;;;;;;10.27;9.30;;;;;;;12.05;79.58;101232.75;5098745;28;20754;-70
2022/05/04 08:20:04;;;;;;;11.17;9.97;;;;;;;12.12;77.65;101233.38;5117324;28;20185;-70
2022/05/04 08:22:30;;;;;;;10.37;9.60;;;;;;;12.14;76.78;101236.78;5117081;28;20213;-70
2022/05/04 08:24:57;;;;;;;12.03;9.03;;;;;;;12.18;77.23;101233.13;5117632;28;20186;-70
2022/05/04 08:27:23;;;;;;;11.93;10.90;;;;;;;12.16;77.73;101232.34;5117162;28;20220;-70
2022/05/04 08:29:50;;;;;;;13.47;9.07;;;;;;;12.22;78.19;101226.00;5116993;28;20262;-70
2022/05/04 08:32:16;;;;;;;11.13;10.13;;;;;;;12.18;77.04;101225.25;5117410;28;20190;-70
2022/05/04 08:34:43;;;;;;;12.53;9.43;;;;;;;12.12;76.97;101225.50;5110553;28;20221;-68
2022/05/04 08:37:09;;;;;;;12.33;9.73;;;;;;;12.05;77.21;101221.41;5110108;28;20235;-69
2022/05/04 08:39:36;;;;;;;11.77;10.23;;;;;;;12.06;78.02;101217.84;5112045;28;20209;-69
2022/05/04 08:42:02;;;;;;;10.57;9.60;;;;;;;12.21;78.11;101226.91;5116509;28;20530;-69
2022/05/04 08:44:29;;;;;;;11.40;9.47;;;;;;;12.22;78.18;101216.34;5116305;28;20184;-68
2022/05/04 08:46:59;;;;;;;10.93;9.23;;;;;;;12.28;77.60;101223.97;5114143;28;20213;-69
2022/05/04 08:49:29;;;;;;;10.57;9.20;;;;;;;12.42;78.84;101209.41;5113000;28;20219;-70
2022/05/04 08:51:55;;;;;;;10.13;9.30;;;;;;;12.74;78.24;101218.59;5114132;28;20197;-69
2022/05/04 08:54:22;;;;;;;17.00;9.37;;;;;;;12.84;77.34;101220.75;5116317;28;20566;-70
2022/05/04 08:56:48;;;;;;;11.77;10.90;;;;;;;12.81;76.52;101214.81;5116691;28;20205;-70
2022/05/04 08:59:16;;;;;;;11.87;10.90;;;;;;;12.77;76.66;101218.47;5116672;28;20589;-71
2022/05/04 09:01:42;;;;;;;10.93;10.03;;;;;;;12.75;76.36;101215.91;5115052;28;20181;-69
2022/05/04 09:04:09;;;;;;;14.50;11.50;;;;;;;12.76;75.34;101217.59;5116258;28;20268;-70
2022/05/04 09:06:42;;;;;;;17.97;12.10;;;;;;;12.77;76.14;101216.69;5116515;28;20238;-70
2022/05/04 09:09:12;;;;;;;13.37;11.73;;;;;;;12.93;75.52;101211.66;5115973;28;20240;-69
2022/05/04 09:11:41;;;;;;;14.37;11.13;;;;;;;12.99;75.66;101203.47;5116139;28;20185;-69
2022/05/04 09:14:10;;;;;;;12.80;11.53;;;;;;;13.06;75.95;101206.69;5116044;28;20233;-69
2022/05/04 09:16:36;;;;;;;15.13;11.67;;;;;;;13.13;74.38;101210.75;5116293;28;20190;-69
2022/05/04 09:19:13;;;;;;;13.27;12.13;;;;;;;13.32;74.38;101209.06;5115826;28;20291;-70
2022/05/04 09:21:40;;;;;;;22.37;13.10;;;;;;;13.36;74.14;101209.75;5115978;28;20183;-70
2022/05/04 09:24:07;;;;;;;18.30;13.20;;;;;;;13.35;75.08;101208.91;5115900;28;20190;-70
2022/05/04 09:26:44;;;;;;;12.37;11.23;;;;;;;13.39;75.38;101204.38;5115830;28;20220;-70
2022/05/04 09:29:12;;;;;;;12.30;11.20;;;;;;;13.59;75.19;101201.72;5116304;28;20208;-70
2022/05/04 09:31:41;;;;;;;14.73;11.53;;;;;;;13.45;74.86;101197.06;5115728;28;20184;-71
2022/05/04 09:34:09;;;;;;;13.63;11.80;;;;;;;13.53;73.65;101193.25;5116192;28;20205;-70
2022/05/04 09:44:54;;;;;;;13.00;11.80;;;;;;;13.53;74.00;101195.88;5115967;28;20232;-70
2022/05/04 09:45:15;;;;;;;11.50;10.30;;;;;;;13.68;72.39;101203.06;5115654;28;20180;-69
2022/05/04 09:47:44;;;;;;;11.87;10.77;;;;;;;13.91;72.04;101209.88;5115238;28;20254;-70
2022/05/04 09:50:15;;;;;;;13.77;11.90;;;;;;;14.05;72.73;101205.66;5115386;28;20230;-70
2022/05/04 09:52:48;;;;;;;18.97;12.43;;;;;;;14.07;71.86;101207.34;5115446;28;20174;-70
2022/05/04 09:55:24;;;;;;;12.67;11.40;;;;;;;14.07;71.59;101202.94;5115811;28;20173;-70
2022/05/04 09:57:52;;;;;;;15.73;12.23;;;;;;;14.08;70.29;101199.41;5115481;28;20622;-70
2022/05/04 10:00:21;;;;;;;11.50;10.47;;;;;;;14.07;71.66;101205.56;5115102;28;20212;-70
2022/05/04 10:02:49;;;;;;;11.97;10.87;;;;;;;14.14;71.46;101211.41;5114928;28;20276;-70
2022/05/04 10:05:16;;;;;;;16.63;11.83;;;;;;;14.14;71.05;101203.50;5115031;28;20196;-70
2022/05/04 10:07:44;;;;;;;14.10;11.73;;;;;;;14.24;70.40;101208.25;5114921;28;20340;-70
2022/05/04 10:10:14;;;;;;;12.40;11.10;;;;;;;14.17;70.99;101200.72;5114440;28;20245;-69
2022/05/04 10:12:42;;;;;;;11.70;10.83;;;;;;;14.17;70.72;101206.00;5115060;28;20193;-69
2022/05/04 10:15:10;;;;;;;14.50;11.40;;;;;;;14.13;70.62;101207.06;5114823;28;20211;-69
2022/05/04 10:17:43;;;;;;;13.33;12.07;;;;;;;14.11;70.29;101207.16;5115117;28;20545;-70
2022/05/04 10:20:15;;;;;;;17.23;12.97;;;;;;;13.97;71.30;101202.53;5114765;28;20271;-71
2022/05/04 10:23:00;;;;;;;14.10;12.77;;;;;;;13.78;71.84;101202.53;5115037;28;20578;-70
2022/05/04 10:25:31;;;;;;;18.57;12.30;;;;;;;13.91;70.37;101194.91;5114695;28;20180;-70
2022/05/04 10:28:07;;;;;;;20.30;12.30;;;;;;;13.70;71.87;101190.66;5114748;28;20228;-70
2022/05/04 10:30:34;;;;;;;16.40;14.70;;;;;;;13.66;71.97;101195.25;5114669;28;20242;-70
2022/05/04 10:33:05;;;;;;;16.23;13.60;;;;;;;13.76;72.34;101193.03;5115069;28;20601;-70
2022/05/04 10:35:38;;;;;;;22.23;13.47;;;;;;;13.77;71.05;101197.34;5114810;28;20177;-70
2022/05/04 10:38:15;;;;;;;13.33;12.23;;;;;;;13.89;70.21;101188.88;5114322;28;20236;-70
2022/05/04 10:40:54;;;;;;;14.53;13.23;;;;;;;13.97;69.71;101186.75;5096252;28;20193;-70
2022/05/04 10:43:36;;;;;;;14.97;12.37;;;;;;;14.16;71.03;101181.44;5114194;28;20635;-71
2022/05/04 10:46:30;;;;;;;13.87;12.40;;;;;;;14.41;72.15;101185.50;5114795;28;20181;-70
2022/05/04 10:49:05;;;;;;;15.00;13.27;;;;;;;14.72;69.57;101188.34;5110964;28;20232;-70
2022/05/04 10:51:35;;;;;;;16.03;13.40;;;;;;;14.81;68.32;101187.88;5114600;28;20207;-69
2022/05/04 10:54:11;;;;;;;13.47;12.17;;;;;;;14.75;68.74;101187.31;5114361;28;20236;-71
2022/05/04 10:56:47;;;;;;;13.03;11.80;;;;;;;14.81;68.21;101193.13;5114437;28;20209;-71
2022/05/04 10:59:29;;;;;;;17.43;12.97;;;;;;;14.89;67.09;101190.09;5114673;28;20205;-72
2022/05/04 11:02:05;;;;;;;15.97;13.43;;;;;;;14.71;67.54;101191.88;5114390;28;20201;-71
2022/05/04 11:04:33;;;;;;;15.30;12.63;;;;;;;14.77;67.31;101191.56;5114324;28;20177;-71
2022/05/04 11:07:07;;;;;;;15.97;13.43;;;;;;;14.75;67.57;101190.81;5113858;28;20643;-72
2022/05/04 11:09:39;;;;;;;13.67;12.53;;;;;;;14.81;67.27;101179.97;5114004;28;20651;-72
2022/05/04 11:12:07;;;;;;;13.60;12.33;;;;;;;14.81;66.93;101181.75;5114231;28;20628;-72
2022/05/04 11:14:34;;;;;;;14.60;13.13;;;;;;;14.89;66.53;101183.97;5113876;28;20236;-72
2022/05/04 11:17:08;;;;;;;13.87;12.43;;;;;;;14.98;66.80;101179.06;5113817;28;20212;-72
2022/05/04 11:19:40;;;;;;;14.97;12.80;;;;;;;15.05;67.14;101175.19;5114190;28;20211;-72
2022/05/04 11:22:08;;;;;;;13.47;12.27;;;;;;;15.14;67.48;101179.09;5113863;28;20209;-72
2022/05/04 11:24:34;;;;;;;13.27;11.93;;;;;;;15.18;67.32;101177.19;5114012;28;20212;-72
2022/05/04 11:27:01;;;;;;;14.83;12.90;;;;;;;15.03;68.02;101169.16;5113640;28;20219;-71
2022/05/04 11:29:28;;;;;;;18.73;12.90;;;;;;;15.07;67.23;101172.44;5114019;28;20216;-72
2022/05/04 11:32:00;;;;;;;13.77;12.30;;;;;;;15.30;67.65;101165.97;5113960;28;20213;-72
2022/05/04 11:34:30;;;;;;;12.57;11.63;;;;;;;15.28;66.70;101168.69;5113855;28;20228;-72
2022/05/04 11:37:01;;;;;;;12.40;11.67;;;;;;;15.30;66.85;101160.72;5113410;28;20204;-72
2022/05/04 11:39:29;;;;;;;15.70;14.13;;;;;;;15.32;64.64;101150.91;5113929;28;20180;-72
2022/05/04 11:41:59;;;;;;;22.40;15.77;;;;;;;15.30;65.25;101161.56;5113591;28;20669;-72
2022/05/04 11:44:27;;;;;;;19.93;18.00;;;;;;;15.28;65.91;101155.47;5113612;28;20185;-72
2022/05/04 11:46:55;;;;;;;18.03;16.30;;;;;;;15.35;65.11;101151.56;5113597;28;20245;-72
2022/05/04 11:49:24;;;;;;;18.60;16.10;;;;;;;15.35;66.53;101154.22;5113550;28;20601;-72
2022/05/04 11:51:52;;;;;;;18.17;15.83;;;;;;;15.14;64.97;101150.97;5113931;28;20285;-73
2022/05/04 11:54:18;;;;;;;20.70;14.50;;;;;;;15.21;64.96;101159.38;5113262;28;20236;-73
2022/05/04 11:56:45;;;;;;;14.37;12.97;;;;;;;15.35;64.09;101154.22;5113530;28;20242;-73
2022/05/04 11:59:12;;;;;;;13.73;12.33;;;;;;;15.33;64.99;101152.59;5113319;28;20691;-72
2022/05/04 12:01:40;;;;;;;12.97;11.73;;;;;;;15.51;64.07;101146.34;5113878;28;20169;-72
2022/05/04 12:04:10;;;;;;;14.33;13.07;;;;;;;15.74;63.26;101139.81;5113574;28;20643;-72